createdAt,value
2022-11-06T00:01:24.721Z,24.17
2022-11-06T00:03:55.062Z,22.13
2022-11-06T00:06:40.190Z,22.73
2022-11-06T00:09:09.745Z,23.00
2022-11-06T00:11:38.524Z,22.88
2022-11-06T00:14:05.595Z,23.25
2022-11-06T00:16:32.558Z,23.90
2022-11-06T00:19:02.948Z,24.67
2022-11-06T00:21:30.907Z,23.70
2022-11-06T00:23:59.985Z,23.77
2022-11-06T00:26:29.341Z,25.33
2022-11-06T00:28:56.237Z,24.63
2022-11-06T00:31:25.543Z,26.52
2022-11-06T00:33:53.992Z,25.63
2022-11-06T00:36:22.657Z,27.85
2022-11-06T00:38:54.070Z,26.00
2022-11-06T00:41:21.573Z,26.80
2022-11-06T00:43:50.017Z,27.88
2022-11-06T00:46:18.084Z,28.27
2022-11-06T00:48:45.004Z,27.75
2022-11-06T00:51:22.157Z,27.60
2022-11-06T00:53:53.533Z,28.15
2022-11-06T00:56:20.709Z,29.30
2022-11-06T00:58:48.049Z,28.30
2022-11-06T01:01:24.040Z,29.80
2022-11-06T01:03:59.547Z,29.85
2022-11-06T01:06:28.937Z,29.15
2022-11-06T01:08:56.301Z,26.63
2022-11-06T01:11:46.560Z,26.58
2022-11-06T01:14:19.385Z,28.10
2022-11-06T01:16:46.172Z,27.92
2022-11-06T01:19:14.239Z,32.28
2022-11-06T01:21:43.148Z,30.48
2022-11-06T01:24:16.062Z,35.60
2022-11-06T01:26:58.454Z,28.73
2022-11-06T01:29:29.371Z,27.05
2022-11-06T01:31:55.984Z,27.95
2022-11-06T01:34:22.672Z,27.92
2022-11-06T01:36:49.278Z,27.27
2022-11-06T01:39:16.265Z,29.73
2022-11-06T01:41:46.367Z,32.35
2022-11-06T01:44:31.855Z,26.83
2022-11-06T01:46:59.516Z,28.95
2022-11-06T01:49:27.245Z,34.58
2022-11-06T01:51:57.437Z,28.17
2022-11-06T01:54:26.649Z,32.25
2022-11-06T01:56:56.266Z,26.27
2022-11-06T01:59:26.933Z,33.53
2022-11-06T02:01:53.872Z,28.75
2022-11-06T02:04:26.604Z,28.67
2022-11-06T02:06:53.361Z,30.73
2022-11-06T02:09:20.565Z,28.02
2022-11-06T02:11:54.937Z,26.98
2022-11-06T02:14:45.278Z,31.00
2022-11-06T02:17:17.942Z,25.40
2022-11-06T02:20:07.944Z,29.40
2022-11-06T02:23:02.467Z,29.70
2022-11-06T02:25:35.228Z,26.25
2022-11-06T02:28:22.996Z,30.20
2022-11-06T02:30:51.294Z,32.85
2022-11-06T02:33:34.255Z,28.75
2022-11-06T02:36:05.769Z,30.08
2022-11-06T02:38:38.380Z,29.75
2022-11-06T02:41:08.260Z,32.95
2022-11-06T02:43:43.129Z,27.67
2022-11-06T02:48:44.977Z,26.10
2022-11-06T02:51:15.014Z,25.70
2022-11-06T02:53:44.517Z,27.23
2022-11-06T02:56:28.293Z,27.10
2022-11-06T02:59:01.434Z,28.33
2022-11-06T03:01:34.189Z,25.92
2022-11-06T03:04:05.414Z,27.08
2022-11-06T03:06:49.051Z,28.77
2022-11-06T03:09:20.737Z,27.05
2022-11-06T03:12:11.449Z,21.77
2022-11-06T03:14:49.068Z,22.85
2022-11-06T03:17:20.616Z,27.63
2022-11-06T03:20:03.490Z,20.10
2022-11-06T03:22:41.475Z,23.52
2022-11-06T03:25:35.362Z,21.98
2022-11-06T03:28:05.160Z,22.67
2022-11-06T03:30:36.280Z,22.15
2022-11-06T03:33:27.551Z,22.05
2022-11-06T03:36:08.837Z,23.75
2022-11-06T03:38:43.387Z,27.65
2022-11-06T03:41:41.269Z,28.38
2022-11-06T03:44:12.558Z,23.67
2022-11-06T03:46:46.497Z,22.40
2022-11-06T03:49:18.474Z,24.08
2022-11-06T03:51:52.355Z,23.98
2022-11-06T03:54:25.233Z,21.98
2022-11-06T03:56:59.209Z,21.15
2022-11-06T03:59:35.637Z,21.87
2022-11-06T04:02:03.041Z,24.98
2022-11-06T04:04:43.614Z,30.65
2022-11-06T04:07:14.733Z,23.75
2022-11-06T04:10:17.292Z,21.50
2022-11-06T04:13:07.803Z,25.60
2022-11-06T04:15:39.193Z,25.50
2022-11-06T04:18:17.731Z,24.70
2022-11-06T04:21:27.481Z,27.38
2022-11-06T04:24:24.173Z,29.20
2022-11-06T04:27:21.822Z,26.67
2022-11-06T04:30:04.508Z,27.88
2022-11-06T04:32:49.572Z,23.40
2022-11-06T04:35:42.548Z,23.38
2022-11-06T04:38:24.694Z,25.20
2022-11-06T04:41:04.521Z,28.60
2022-11-06T04:43:42.224Z,24.65
2022-11-06T04:46:13.477Z,22.33
2022-11-06T04:48:41.638Z,24.73
2022-11-06T04:51:11.201Z,26.60
2022-11-06T04:53:39.315Z,21.00
2022-11-06T04:56:31.905Z,23.00
2022-11-06T04:59:00.745Z,22.27
2022-11-06T05:01:27.612Z,23.73
2022-11-06T05:03:54.409Z,22.45
2022-11-06T05:06:24.568Z,20.90
2022-11-06T05:08:53.902Z,26.35
2022-11-06T05:11:20.509Z,21.55
2022-11-06T05:13:47.132Z,22.48
2022-11-06T05:16:13.749Z,26.42
2022-11-06T05:18:40.351Z,19.25
2022-11-06T05:21:25.546Z,24.98
2022-11-06T05:23:52.137Z,19.70
2022-11-06T05:26:18.930Z,24.25
2022-11-06T05:28:45.741Z,22.15
2022-11-06T05:31:12.424Z,23.23
2022-11-06T05:33:39.062Z,25.20
2022-11-06T05:36:06.507Z,25.20
2022-11-06T05:38:33.255Z,26.23
2022-11-06T05:41:00.272Z,26.65
2022-11-06T05:43:26.929Z,28.17
2022-11-06T05:45:53.635Z,23.60
2022-11-06T05:48:20.257Z,20.40
2022-11-06T05:50:46.974Z,23.35
2022-11-06T05:53:15.819Z,26.15
2022-11-06T05:55:42.664Z,27.55
2022-11-06T05:58:09.304Z,25.48
2022-11-06T06:00:35.969Z,26.33
2022-11-06T06:03:03.132Z,21.90
2022-11-06T06:05:29.765Z,27.35
2022-11-06T06:07:56.452Z,25.98
2022-11-06T06:10:23.117Z,31.25
2022-11-06T06:12:50.351Z,28.98
2022-11-06T06:15:17.466Z,30.50
2022-11-06T06:17:45.352Z,25.95
2022-11-06T06:20:12.344Z,28.00
2022-11-06T06:22:39.025Z,30.45
2022-11-06T06:25:17.363Z,28.38
2022-11-06T06:27:49.168Z,27.30
2022-11-06T06:30:15.833Z,33.05
2022-11-06T06:32:42.517Z,32.95
2022-11-06T06:35:09.349Z,34.80
2022-11-06T06:37:36.255Z,31.38
2022-11-06T06:40:03.468Z,32.08
2022-11-06T06:42:31.558Z,32.75
2022-11-06T06:44:58.338Z,36.00
2022-11-06T06:47:24.936Z,32.75
2022-11-06T06:49:51.511Z,34.78
2022-11-06T06:52:18.157Z,31.70
2022-11-06T06:54:45.177Z,32.25
2022-11-06T06:57:11.799Z,32.35
2022-11-06T06:59:38.700Z,31.00
2022-11-06T07:02:05.533Z,29.42
2022-11-06T07:04:32.371Z,34.22
2022-11-06T07:06:58.952Z,28.83
2022-11-06T07:09:25.565Z,30.67
2022-11-06T07:11:52.165Z,30.45
2022-11-06T07:14:18.838Z,28.52
2022-11-06T07:16:48.506Z,29.50
2022-11-06T07:19:19.526Z,28.13
2022-11-06T07:21:46.165Z,31.70
2022-11-06T07:24:13.457Z,36.88
2022-11-06T07:26:40.064Z,29.17
2022-11-06T07:29:06.631Z,26.27
2022-11-06T07:31:33.985Z,27.63
2022-11-06T07:34:00.589Z,28.58
2022-11-06T07:36:27.242Z,26.02
2022-11-06T07:38:53.880Z,23.85
2022-11-06T07:41:20.489Z,24.98
2022-11-06T07:43:49.400Z,24.98
2022-11-06T07:46:16.100Z,25.77
2022-11-06T07:48:42.717Z,27.70
2022-11-06T07:51:11.278Z,26.05
2022-11-06T07:53:38.334Z,26.05
2022-11-06T07:56:06.073Z,25.33
2022-11-06T07:58:33.596Z,22.60
2022-11-06T08:01:00.355Z,25.73
2022-11-06T08:03:29.753Z,25.55
2022-11-06T08:05:57.516Z,26.35
2022-11-06T08:08:24.160Z,26.50
2022-11-06T08:10:51.978Z,24.88
2022-11-06T08:13:19.256Z,24.63
2022-11-06T08:15:45.999Z,26.77
2022-11-06T08:18:13.332Z,29.10
2022-11-06T08:20:40.871Z,28.65
2022-11-06T08:23:10.296Z,27.58
2022-11-06T08:25:38.010Z,29.08
2022-11-06T08:28:05.083Z,29.15
2022-11-06T08:30:32.628Z,29.50
2022-11-06T08:33:05.142Z,31.08
2022-11-06T08:35:31.949Z,30.98
2022-11-06T08:37:58.564Z,28.88
2022-11-06T08:40:30.644Z,28.92
2022-11-06T08:43:02.220Z,29.67
2022-11-06T08:45:29.499Z,27.65
2022-11-06T08:48:00.170Z,29.17
2022-11-06T08:50:26.857Z,27.73
2022-11-06T08:52:56.826Z,28.88
2022-11-06T08:55:23.457Z,27.23
2022-11-06T08:57:50.030Z,28.33
2022-11-06T09:00:16.891Z,26.38
2022-11-06T09:02:43.481Z,29.50
2022-11-06T09:05:10.197Z,26.55
2022-11-06T09:07:36.819Z,28.52
2022-11-06T09:10:06.882Z,27.83
2022-11-06T09:12:33.476Z,26.63
2022-11-06T09:15:00.310Z,27.50
2022-11-06T09:17:26.948Z,26.25
2022-11-06T09:19:53.561Z,28.15
2022-11-06T09:22:20.178Z,26.15
2022-11-06T09:25:04.193Z,26.92
2022-11-06T09:27:31.801Z,26.07
2022-11-06T09:29:58.462Z,27.38
2022-11-06T09:32:25.416Z,26.02
2022-11-06T09:34:52.034Z,25.73
2022-11-06T09:37:18.660Z,27.77
2022-11-06T09:39:45.266Z,26.38
2022-11-06T09:42:38.722Z,27.02
2022-11-06T09:45:09.555Z,27.40
2022-11-06T09:47:39.984Z,26.63
2022-11-06T09:50:15.877Z,26.67
2022-11-06T09:53:06.420Z,26.75
2022-11-06T09:55:40.762Z,26.80
2022-11-06T09:58:16.362Z,26.40
2022-11-06T10:00:43.702Z,26.63
2022-11-06T10:03:23.232Z,25.75
2022-11-06T10:05:53.219Z,25.02
2022-11-06T10:08:25.333Z,26.00
2022-11-06T10:11:04.330Z,25.77
2022-11-06T10:13:52.941Z,25.00
2022-11-06T10:16:49.570Z,25.88
2022-11-06T10:19:45.877Z,26.83
2022-11-06T10:22:16.950Z,24.48
2022-11-06T10:24:53.621Z,25.50
2022-11-06T10:27:39.290Z,24.98
2022-11-06T10:30:16.872Z,26.63
2022-11-06T10:32:43.469Z,25.92
2022-11-06T10:35:22.054Z,25.30
2022-11-06T10:38:25.852Z,25.20
2022-11-06T10:40:54.013Z,25.67
2022-11-06T10:43:31.748Z,26.15
2022-11-06T10:46:24.285Z,26.48
2022-11-06T10:49:02.180Z,27.33
2022-11-06T10:51:29.323Z,27.75
2022-11-06T10:54:31.688Z,27.38
2022-11-06T10:57:20.791Z,27.48
2022-11-06T10:59:49.341Z,27.15
2022-11-06T11:02:30.559Z,25.92
2022-11-06T11:04:58.430Z,28.63
2022-11-06T11:07:29.247Z,25.58
2022-11-06T11:09:55.914Z,25.80
2022-11-06T11:12:31.017Z,25.33
2022-11-06T11:15:14.297Z,26.38
2022-11-06T11:17:42.197Z,28.60
2022-11-06T11:20:31.837Z,27.17
2022-11-06T11:23:20.655Z,26.83
2022-11-06T11:25:49.975Z,27.58
2022-11-06T11:28:30.845Z,26.80
2022-11-06T11:31:13.100Z,26.48
2022-11-06T11:33:41.859Z,27.08
2022-11-06T11:36:10.182Z,25.42
2022-11-06T11:38:40.247Z,26.08
2022-11-06T11:41:20.931Z,26.65
2022-11-06T11:43:59.512Z,27.85
2022-11-06T11:46:26.944Z,26.08
2022-11-06T11:48:58.582Z,27.25
2022-11-06T11:51:29.610Z,27.45
2022-11-06T11:54:03.227Z,27.42
2022-11-06T11:56:58.275Z,28.55
2022-11-06T11:59:21.837Z,27.63
2022-11-06T12:01:49.946Z,25.25
2022-11-06T12:04:19.410Z,26.08
2022-11-06T12:06:51.509Z,26.50
2022-11-06T12:09:18.601Z,25.45
2022-11-06T12:11:46.793Z,25.40
2022-11-06T12:14:28.342Z,26.00
2022-11-06T12:17:05.881Z,26.88
2022-11-06T12:19:35.756Z,26.08
2022-11-06T12:22:08.154Z,26.20
2022-11-06T12:24:46.612Z,27.42
2022-11-06T12:27:23.250Z,27.15
2022-11-06T12:30:13.794Z,27.00
2022-11-06T12:33:02.062Z,26.88
2022-11-06T12:35:37.394Z,25.83
2022-11-06T12:38:31.542Z,24.05
2022-11-06T12:41:19.282Z,25.65
2022-11-06T12:43:50.735Z,24.38
2022-11-06T12:46:34.785Z,24.50
2022-11-06T12:49:01.377Z,24.08
2022-11-06T12:51:51.823Z,25.30
2022-11-06T12:54:39.774Z,24.58
2022-11-06T12:57:44.000Z,25.88
2022-11-06T13:00:21.725Z,23.65
2022-11-06T13:03:15.246Z,23.65
2022-11-06T13:05:54.488Z,24.30
2022-11-06T13:08:45.321Z,26.42
2022-11-06T13:11:24.987Z,25.30
2022-11-06T13:14:17.928Z,25.67
2022-11-06T13:16:53.479Z,25.92
2022-11-06T13:19:30.734Z,25.25
2022-11-06T13:22:14.875Z,26.23
2022-11-06T13:25:12.810Z,24.90
2022-11-06T13:28:06.804Z,27.00
2022-11-06T13:30:36.913Z,26.80
2022-11-06T13:33:15.014Z,26.15
2022-11-06T13:35:44.061Z,24.20
2022-11-06T13:38:17.825Z,25.25
2022-11-06T13:40:48.180Z,26.20
2022-11-06T13:43:34.893Z,23.60
2022-11-06T13:46:24.210Z,22.17
2022-11-06T13:48:54.296Z,22.30
2022-11-06T13:51:38.944Z,21.92
2022-11-06T13:54:42.760Z,22.58
2022-11-06T13:57:38.525Z,22.48
2022-11-06T14:02:49.601Z,21.25
2022-11-06T14:05:27.898Z,20.00
2022-11-06T14:07:56.098Z,20.17
2022-11-06T14:10:30.115Z,21.95
2022-11-06T14:12:57.030Z,20.60
2022-11-06T14:15:39.546Z,21.92
2022-11-06T14:18:06.485Z,19.77
2022-11-06T14:20:37.702Z,19.80
2022-11-06T14:23:29.246Z,20.88
2022-11-06T14:26:00.950Z,19.50
2022-11-06T14:28:38.310Z,20.40
2022-11-06T14:31:12.080Z,20.33
2022-11-06T14:33:41.657Z,20.38
2022-11-06T14:36:26.392Z,20.75
2022-11-06T14:38:53.560Z,20.50
2022-11-06T14:41:35.341Z,20.17
2022-11-06T14:44:22.237Z,20.42
2022-11-06T14:46:56.459Z,20.88
2022-11-06T14:49:41.942Z,21.90
2022-11-06T14:54:41.298Z,20.50
2022-11-06T14:57:15.309Z,20.92
2022-11-06T14:59:42.627Z,21.37
2022-11-06T15:02:22.766Z,22.63
2022-11-06T15:04:56.237Z,20.92
2022-11-06T15:08:02.702Z,23.38
2022-11-06T15:10:41.639Z,21.88
2022-11-06T15:13:22.429Z,22.77
2022-11-06T15:15:52.553Z,25.40
2022-11-06T15:18:25.072Z,23.13
2022-11-06T15:20:58.536Z,22.77
2022-11-06T15:23:31.344Z,23.17
2022-11-06T15:26:25.793Z,23.20
2022-11-06T15:29:11.238Z,25.08
2022-11-06T15:34:26.108Z,21.70
2022-11-06T15:36:58.954Z,25.40
2022-11-06T15:39:47.434Z,35.40
2022-11-06T15:42:18.106Z,39.05
2022-11-06T15:44:46.168Z,37.13
2022-11-06T15:47:27.754Z,28.70
2022-11-06T15:50:16.894Z,26.90
2022-11-06T15:52:45.149Z,23.70
2022-11-06T15:55:24.010Z,25.95
2022-11-06T15:57:51.077Z,26.38
2022-11-06T16:00:24.076Z,23.60
2022-11-06T16:03:00.240Z,20.65
2022-11-06T16:05:33.424Z,23.13
2022-11-06T16:08:00.905Z,24.35
2022-11-06T16:10:28.085Z,24.10
2022-11-06T16:12:55.852Z,22.08
2022-11-06T16:15:55.302Z,22.38
2022-11-06T16:18:40.989Z,22.45
2022-11-06T16:21:18.948Z,21.27
2022-11-06T16:24:11.286Z,24.52
2022-11-06T16:26:44.045Z,22.50
2022-11-06T16:29:24.283Z,25.08
2022-11-06T16:32:06.986Z,19.63
2022-11-06T16:34:37.320Z,19.60
2022-11-06T16:37:29.945Z,20.35
2022-11-06T16:39:59.254Z,20.38
2022-11-06T16:42:30.096Z,21.27
2022-11-06T16:45:08.942Z,19.40
2022-11-06T16:47:35.856Z,20.50
2022-11-06T16:50:05.757Z,19.50
2022-11-06T16:52:40.843Z,20.85
2022-11-06T16:57:47.074Z,20.13
2022-11-06T17:00:19.626Z,20.83
2022-11-06T17:02:59.092Z,19.40
2022-11-06T17:05:33.453Z,19.67
2022-11-06T17:08:18.439Z,19.98
2022-11-06T17:11:16.808Z,19.88
2022-11-06T17:13:45.020Z,22.65
2022-11-06T17:16:15.751Z,19.65
2022-11-06T17:18:42.809Z,19.65
2022-11-06T17:21:21.902Z,19.90
2022-11-06T17:23:48.726Z,21.67
2022-11-06T17:26:26.310Z,19.90
2022-11-06T17:28:53.035Z,20.98
2022-11-06T17:31:20.780Z,21.42
2022-11-06T17:33:48.162Z,21.98
2022-11-06T17:36:16.996Z,23.33
2022-11-06T17:38:43.766Z,21.98
2022-11-06T17:41:10.524Z,20.70
2022-11-06T17:43:37.213Z,21.73
2022-11-06T17:46:04.169Z,21.70
2022-11-06T17:48:30.774Z,23.38
2022-11-06T17:51:16.246Z,22.73
2022-11-06T17:53:42.894Z,23.45
2022-11-06T17:56:09.494Z,21.80
2022-11-06T17:58:36.138Z,22.25
2022-11-06T18:01:08.543Z,20.02
2022-11-06T18:03:41.614Z,21.58
2022-11-06T18:06:10.701Z,22.42
2022-11-06T18:08:37.385Z,20.48
2022-11-06T18:11:04.828Z,23.63
2022-11-06T18:13:32.081Z,23.65
2022-11-06T18:15:59.235Z,23.70
2022-11-06T18:18:25.913Z,22.58
2022-11-06T18:20:52.561Z,23.05
2022-11-06T18:23:19.208Z,22.30
2022-11-06T18:25:56.264Z,21.77
2022-11-06T18:28:24.328Z,22.63
2022-11-06T18:30:51.777Z,22.95
2022-11-06T18:33:19.291Z,21.70
2022-11-06T18:35:46.781Z,24.50
2022-11-06T18:38:14.963Z,25.25
2022-11-06T18:40:46.102Z,23.80
2022-11-06T18:45:43.669Z,23.80
2022-11-06T18:48:10.361Z,25.95
2022-11-06T18:50:37.680Z,23.95
2022-11-06T18:53:04.901Z,23.10
2022-11-06T18:55:32.472Z,22.90
2022-11-06T18:57:59.222Z,26.02
2022-11-06T19:00:26.110Z,24.25
2022-11-06T19:02:52.837Z,25.10
2022-11-06T19:05:19.604Z,24.88
2022-11-06T19:07:51.197Z,25.20
2022-11-06T19:10:19.572Z,25.20
2022-11-06T19:12:46.220Z,26.77
2022-11-06T19:15:13.088Z,24.40
2022-11-06T19:17:39.701Z,27.92
2022-11-06T19:20:08.582Z,25.17
2022-11-06T19:22:38.779Z,29.92
2022-11-06T19:25:05.777Z,28.92
2022-11-06T19:27:32.373Z,26.83
2022-11-06T19:29:58.969Z,27.52
2022-11-06T19:32:25.946Z,24.55
2022-11-06T19:34:52.526Z,26.67
2022-11-06T19:37:19.139Z,26.60
2022-11-06T19:39:45.772Z,26.95
2022-11-06T19:42:12.355Z,24.65
2022-11-06T19:44:38.962Z,26.88
2022-11-06T19:47:05.546Z,24.73
2022-11-06T19:49:32.336Z,24.13
2022-11-06T19:52:43.310Z,25.40
2022-11-06T19:54:45.574Z,24.27
2022-11-06T19:57:27.760Z,24.63
2022-11-06T19:59:56.367Z,25.50
2022-11-06T20:02:23.049Z,25.17
2022-11-06T20:04:49.717Z,25.17
2022-11-06T20:07:16.988Z,24.75
2022-11-06T20:09:43.985Z,25.25
2022-11-06T20:12:14.688Z,27.58
2022-11-06T20:14:41.546Z,25.52
2022-11-06T20:17:08.240Z,25.05
2022-11-06T20:19:35.126Z,26.60
2022-11-06T20:22:02.299Z,25.90
2022-11-06T20:24:29.451Z,24.70
2022-11-06T20:26:56.025Z,24.02
2022-11-06T20:29:22.612Z,25.10
2022-11-06T20:31:49.223Z,23.65
2022-11-06T20:34:16.042Z,23.60
2022-11-06T20:36:42.793Z,25.58
2022-11-06T20:39:09.678Z,26.05
2022-11-06T20:41:36.315Z,25.75
2022-11-06T20:44:04.021Z,23.98
2022-11-06T20:46:30.958Z,26.63
2022-11-06T20:48:58.141Z,25.05
2022-11-06T20:51:27.023Z,25.42
2022-11-06T20:53:54.008Z,26.23
2022-11-06T20:56:22.404Z,27.05
2022-11-06T20:58:49.007Z,25.13
2022-11-06T21:01:21.387Z,24.92
2022-11-06T21:03:50.004Z,25.15
2022-11-06T21:06:17.950Z,25.10
2022-11-06T21:08:45.248Z,23.13
2022-11-06T21:11:18.119Z,23.55
2022-11-06T21:13:47.697Z,24.73
2022-11-06T21:16:18.474Z,24.45
2022-11-06T21:18:45.897Z,23.35
2022-11-06T21:21:15.647Z,22.90
2022-11-06T21:23:43.190Z,24.40
2022-11-06T21:26:18.758Z,23.83
2022-11-06T21:28:45.836Z,22.77
2022-11-06T21:31:15.109Z,23.52
2022-11-06T21:33:47.165Z,24.90
2022-11-06T21:36:17.368Z,23.42
2022-11-06T21:38:44.202Z,24.02
2022-11-06T21:41:16.778Z,23.77
2022-11-06T21:43:43.962Z,24.45
2022-11-06T21:46:12.638Z,24.60
2022-11-06T21:48:48.174Z,24.02
2022-11-06T21:51:33.647Z,24.48
2022-11-06T21:54:18.802Z,24.77
2022-11-06T21:56:49.167Z,23.08
2022-11-06T21:59:18.966Z,23.35
2022-11-06T22:01:45.772Z,23.38
2022-11-06T22:04:13.641Z,24.00
2022-11-06T22:06:42.429Z,23.98
2022-11-06T22:09:10.667Z,24.58
2022-11-06T22:11:40.310Z,23.27
2022-11-06T22:14:12.361Z,22.63
2022-11-06T22:16:41.231Z,21.45
2022-11-06T22:19:08.865Z,21.48
2022-11-06T22:21:37.405Z,20.95
2022-11-06T22:24:05.158Z,22.13
2022-11-06T22:26:33.703Z,21.52
2022-11-06T22:29:02.356Z,21.00
2022-11-06T22:31:29.942Z,22.15
2022-11-06T22:33:56.994Z,21.33
2022-11-06T22:36:24.143Z,21.67
2022-11-06T22:38:51.329Z,21.15
2022-11-06T22:41:21.057Z,21.75
2022-11-06T22:43:47.984Z,21.10
2022-11-06T22:46:21.372Z,21.40
2022-11-06T22:48:49.111Z,22.35
2022-11-06T22:51:18.941Z,22.15
2022-11-06T22:53:45.744Z,21.52
2022-11-06T22:56:12.777Z,22.27
2022-11-06T22:58:40.591Z,21.00
2022-11-06T23:01:08.265Z,22.02
2022-11-06T23:03:35.007Z,21.80
2022-11-06T23:06:08.595Z,20.95
2022-11-06T23:08:40.652Z,21.02
2022-11-06T23:11:11.980Z,22.13
2022-11-06T23:13:39.538Z,20.85
2022-11-06T23:16:38.900Z,21.17
2022-11-06T23:19:05.729Z,20.75
2022-11-06T23:21:32.380Z,21.25
2022-11-06T23:23:58.988Z,21.35
2022-11-06T23:26:25.785Z,20.67
2022-11-06T23:28:55.154Z,20.30
2022-11-06T23:31:22.818Z,19.85
2022-11-06T23:33:50.030Z,20.17
2022-11-06T23:36:17.857Z,19.65
2022-11-06T23:38:44.850Z,20.83
2022-11-06T23:41:33.773Z,19.42
2022-11-06T23:44:01.293Z,19.88
2022-11-06T23:46:30.588Z,19.48
2022-11-06T23:48:57.765Z,20.70
2022-11-06T23:51:25.534Z,20.23
2022-11-06T23:53:52.857Z,19.52
2022-11-06T23:56:19.490Z,20.38
2022-11-06T23:58:46.161Z,19.52
